Guide Rock, Nebraska
Current Conditions -  °F | °C
As of 10:53 PM on Sunday 21 Dec 2014 (Local Time) from KHSI Reporting Station
Overcast Overcast  
Wind Chill: 34°   Ceiling: 700
Heat Index: 41°   Visibility: 8mi
Dew Point: 38°   Wind: 12mph
Humidity: 89%   Direction: 180°S
Pressure: 29.54"   Gusts: NA
Location:  40.07°N, 98.33°W
Report Text: KHSI 220453Z AUTO 18010KT 8SM OVC007 05/03 A2954 RMK AO2 SLP013 T00500033
Loading
Personal Weather Stations






























Interactive Weather Map New forecast layout! Learn more

10-Day Weather Forecast

Advertisements
Track Severe Weather on mobile